Time;durP1;ratioP1;P1;durP2;ratioP2;P2;SDS_P1;SDS_P2;PMS_P1;PMS_P2;Temp;Humidity;BMP_temperature;BMP_pressure;BME280_temperature;BME280_humidity;BME280_pressure;Samples;Min_cycle;Max_cycle;Signal;HPM_P1;HPM_P2
2022/07/04 07:33:57;;;;;;;6.08;2.10;;;;;;;26.39;46.29;100307.50;1731675;81;21041;-37
2022/07/04 07:36:24;;;;;;;7.42;3.02;;;;;;;26.63;45.16;100307.73;1738015;81;21546;-45
2022/07/04 07:38:52;;;;;;;7.72;2.33;;;;;;;26.78;44.70;100304.48;1715650;81;21488;-38
2022/07/04 07:41:19;;;;;;;8.20;2.20;;;;;;;26.93;45.04;100302.13;1720401;83;21083;-45
2022/07/04 07:43:46;;;;;;;5.67;2.45;;;;;;;27.04;43.36;100296.88;1716779;81;21045;-46
2022/07/04 07:46:12;;;;;;;3.45;2.58;;;;;;;27.15;44.59;100299.36;1712673;83;20966;-38
2022/07/04 07:48:39;;;;;;;5.95;2.70;;;;;;;27.27;43.60;100294.48;1715098;83;21025;-45
2022/07/04 07:51:06;;;;;;;2.58;2.20;;;;;;;27.38;44.12;100296.42;1714228;83;20994;-45
2022/07/04 07:53:34;;;;;;;2.75;1.90;;;;;;;27.51;43.18;100301.30;1708981;83;21648;-37
2022/07/04 07:56:00;;;;;;;4.47;2.40;;;;;;;27.56;42.60;100291.95;1710274;81;20941;-45
2022/07/04 07:58:28;;;;;;;4.50;2.15;;;;;;;27.61;42.43;100292.97;1703742;83;21053;-37
2022/07/04 08:00:55;;;;;;;5.72;1.92;;;;;;;27.70;42.18;100294.16;1721826;82;21008;-37
2022/07/04 08:06:07;;;;;;;2.45;1.87;;;;;;;27.98;41.11;100301.97;1667860;85;21073;-37
2022/07/04 08:08:34;;;;;;;2.08;1.70;;;;;;;28.03;40.67;100298.46;1736195;82;21097;-37
2022/07/04 08:11:02;;;;;;;6.92;1.85;;;;;;;28.13;40.55;100297.31;1724362;82;21010;-46
2022/07/04 08:13:29;;;;;;;2.92;1.70;;;;;;;28.21;38.48;100294.05;1705241;83;21691;-46
2022/07/04 08:15:57;;;;;;;3.92;2.20;;;;;;;28.22;39.01;100297.11;1713543;83;20991;-45
2022/07/04 08:18:24;;;;;;;4.10;1.92;;;;;;;28.31;38.60;100298.65;1716188;82;21057;-46
2022/07/04 08:20:51;;;;;;;3.27;2.10;;;;;;;28.39;38.37;100290.03;1723082;81;21053;-46
2022/07/04 08:23:18;;;;;;;4.67;1.77;;;;;;;28.38;38.31;100288.81;1729713;83;21078;-37
2022/07/04 08:25:45;;;;;;;4.47;2.40;;;;;;;28.43;38.18;100283.95;1701426;83;21434;-45
2022/07/04 08:28:12;;;;;;;3.72;2.10;;;;;;;28.50;38.03;100289.23;1712984;83;21628;-38
2022/07/04 08:30:39;;;;;;;1.95;1.72;;;;;;;28.59;36.63;100284.53;1704655;83;20971;-38
2022/07/04 08:33:05;;;;;;;4.90;2.00;;;;;;;28.58;36.52;100283.64;1731104;82;21501;-38
2022/07/04 08:35:33;;;;;;;1.80;1.70;;;;;;;28.51;36.49;100281.53;1721528;82;21005;-38
2022/07/04 08:38:00;;;;;;;2.37;1.77;;;;;;;28.42;36.58;100282.23;1721957;81;21034;-46
2022/07/04 08:40:27;;;;;;;1.77;1.50;;;;;;;28.39;36.03;100281.96;1723477;82;21391;-46
2022/07/04 08:42:54;;;;;;;4.90;2.00;;;;;;;28.39;37.30;100284.66;1718734;82;21576;-37
2022/07/04 08:45:30;;;;;;;4.42;1.50;;;;;;;28.45;37.25;100282.84;1722967;82;20973;-45
2022/07/04 08:48:08;;;;;;;2.75;1.90;;;;;;;28.60;37.04;100279.52;1724477;82;21084;-38
2022/07/04 08:50:38;;;;;;;5.05;1.90;;;;;;;28.78;36.93;100282.15;1733348;82;21002;-38
2022/07/04 08:53:09;;;;;;;2.42;1.80;;;;;;;28.90;36.73;100278.52;1716625;82;21461;-45
2022/07/04 08:58:30;;;;;;;5.40;2.30;;;;;;;29.04;36.08;100273.44;1718185;82;21045;-38
2022/07/04 09:01:00;;;;;;;3.83;2.10;;;;;;;29.14;35.05;100267.72;1716610;82;21012;-38
2022/07/04 09:03:27;;;;;;;5.45;1.72;;;;;;;29.26;35.25;100260.51;1720523;82;21033;-37
2022/07/04 09:05:54;;;;;;;3.92;1.77;;;;;;;29.37;34.82;100257.83;1714040;82;20962;-38
2022/07/04 09:08:22;;;;;;;4.15;1.75;;;;;;;29.47;34.03;100264.70;1723360;81;21631;-46
2022/07/04 09:10:49;;;;;;;7.28;1.90;;;;;;;29.54;33.46;100259.22;1721461;82;21470;-37
2022/07/04 09:13:17;;;;;;;2.27;1.98;;;;;;;29.58;32.59;100260.70;1726296;82;21044;-46
2022/07/04 09:15:46;;;;;;;3.22;1.47;;;;;;;29.55;33.68;100262.28;1712174;82;21352;-38
2022/07/04 09:18:28;;;;;;;2.33;1.60;;;;;;;29.59;34.48;100260.20;1718150;82;21022;-37
2022/07/04 09:21:05;;;;;;;2.05;1.77;;;;;;;29.65;33.59;100257.87;1729211;82;20964;-38
2022/07/04 09:23:36;;;;;;;4.50;1.80;;;;;;;29.63;32.99;100262.55;1715255;82;21069;-38
2022/07/04 09:26:20;;;;;;;7.20;1.87;;;;;;;29.61;33.24;100260.94;1733194;82;20950;-46
2022/07/04 09:28:57;;;;;;;1.90;1.50;;;;;;;29.64;33.23;100255.31;1718289;82;21608;-37
2022/07/04 09:31:29;;;;;;;2.87;1.60;;;;;;;29.64;32.70;100250.78;1714362;82;20957;-46
2022/07/04 09:34:03;;;;;;;3.60;1.85;;;;;;;29.64;33.09;100253.47;1727005;82;21025;-38
2022/07/04 09:36:35;;;;;;;4.05;1.80;;;;;;;29.59;32.91;100250.28;1720980;82;20985;-38
2022/07/04 09:39:12;;;;;;;;;;;;;;;29.50;33.56;100250.97;1726244;82;21442;-37
2022/07/04 09:41:59;;;;;;;3.15;1.57;;;;;;;29.52;34.92;100251.77;1726648;82;20414;-38
2022/07/04 09:44:48;;;;;;;2.05;1.77;;;;;;;29.60;35.40;100251.99;1730694;82;21049;-38
2022/07/04 09:47:28;;;;;;;1.75;1.65;;;;;;;29.73;34.27;100242.42;1725240;82;21029;-46
2022/07/04 09:50:08;;;;;;;2.58;1.42;;;;;;;29.79;33.09;100246.46;1732025;82;21053;-38
2022/07/04 09:52:55;;;;;;;3.05;1.70;;;;;;;29.82;33.59;100235.45;1722092;82;21523;-38
2022/07/04 09:55:32;;;;;;;2.55;1.90;;;;;;;29.88;33.51;100248.42;1729745;82;21486;-46
2022/07/04 09:58:04;;;;;;;2.80;1.90;;;;;;;29.90;33.72;100241.06;1720283;82;21525;-38
2022/07/04 10:00:35;;;;;;;4.90;2.00;;;;;;;29.81;33.94;100233.73;1717525;82;21025;-46
2022/07/04 10:03:29;;;;;;;1.95;1.77;;;;;;;29.73;33.55;100240.22;1721134;82;21843;-37
2022/07/04 10:06:11;;;;;;;2.45;1.70;;;;;;;29.63;33.24;100234.70;1718818;82;21508;-37
2022/07/04 10:08:39;;;;;;;4.50;1.95;;;;;;;29.46;33.23;100233.36;1722282;82;21088;-39
2022/07/04 10:11:06;;;;;;;9.75;1.87;;;;;;;29.39;34.76;100234.80;1712515;82;21556;-46
2022/07/04 10:13:35;;;;;;;3.60;1.80;;;;;;;29.44;34.88;100231.25;1715106;82;21014;-38
2022/07/04 10:16:02;;;;;;;2.10;1.57;;;;;;;29.51;34.14;100231.13;1719856;82;20943;-38
2022/07/04 10:18:29;;;;;;;1.98;1.70;;;;;;;29.51;33.70;100228.92;1732347;82;20990;-38
2022/07/04 10:20:56;;;;;;;3.17;1.57;;;;;;;29.50;34.33;100231.25;1733369;82;21478;-40
2022/07/04 10:23:25;;;;;;;4.42;1.90;;;;;;;29.51;34.96;100225.73;1722754;82;21473;-46
2022/07/04 10:25:53;;;;;;;2.10;1.40;;;;;;;29.56;34.18;100224.05;1725341;82;20993;-38
2022/07/04 10:28:20;;;;;;;2.85;2.20;;;;;;;29.57;33.58;100219.03;1724682;82;21002;-38
2022/07/04 10:30:51;;;;;;;2.30;2.02;;;;;;;29.61;34.15;100221.36;1729590;82;21521;-46
2022/07/04 10:33:24;;;;;;;3.72;1.70;;;;;;;29.73;34.11;100224.05;1727441;82;21048;-46
2022/07/04 10:35:54;;;;;;;2.42;1.65;;;;;;;29.86;33.93;100224.75;1713721;81;21454;-38
2022/07/04 10:38:28;;;;;;;2.05;1.52;;;;;;;30.03;33.03;100217.48;1712826;82;21640;-46
2022/07/04 10:41:02;;;;;;;2.05;1.52;;;;;;;30.21;31.74;100223.27;1712962;82;21038;-38
2022/07/04 10:43:37;;;;;;;2.42;1.47;;;;;;;30.35;30.70;100211.30;1729800;81;21077;-38
2022/07/04 10:46:16;;;;;;;13.68;1.87;;;;;;;30.43;29.48;100212.36;1685363;84;20978;-38
2022/07/04 10:49:17;;;;;;;5.40;1.90;;;;;;;30.50;30.57;100207.79;1737028;82;21041;-38
2022/07/04 10:51:53;;;;;;;3.15;1.50;;;;;;;30.59;29.45;100211.92;1737093;82;21021;-40
2022/07/04 10:54:30;;;;;;;4.78;1.70;;;;;;;30.61;29.62;100208.59;1736493;82;21045;-48
2022/07/04 10:57:12;;;;;;;5.83;2.33;;;;;;;30.57;30.24;100211.21;1721853;82;21062;-39
2022/07/04 10:59:59;;;;;;;2.30;2.10;;;;;;;30.61;30.87;100204.54;1722861;83;21078;-39
2022/07/04 11:02:37;;;;;;;1.75;1.32;;;;;;;30.67;29.38;100201.81;1731605;82;21038;-47
2022/07/04 11:05:12;;;;;;;1.90;1.65;;;;;;;30.72;29.28;100196.42;1733436;82;21038;-47
2022/07/04 11:07:45;;;;;;;1.65;1.42;;;;;;;30.81;30.15;100200.69;1692815;85;21056;-38
2022/07/04 11:13:01;;;;;;;2.15;1.70;;;;;;;30.87;29.38;100194.75;1737298;82;21554;-39
2022/07/04 11:15:37;;;;;;;3.27;2.27;;;;;;;30.77;29.76;100193.33;1737404;82;21612;-39
2022/07/04 11:18:11;;;;;;;1.72;1.42;;;;;;;30.70;29.99;100190.80;1736878;82;21042;-39
2022/07/04 11:20:39;;;;;;;4.65;1.60;;;;;;;30.72;29.09;100185.62;1737434;82;20974;-40
2022/07/04 11:23:09;;;;;;;2.02;1.77;;;;;;;30.73;28.62;100186.47;1715282;82;21604;-38
2022/07/04 11:25:39;;;;;;;2.45;1.87;;;;;;;30.70;28.89;100184.05;1717515;81;21071;-46
2022/07/04 11:28:25;;;;;;;4.15;1.72;;;;;;;30.60;29.67;100187.98;1723353;82;21642;-38
2022/07/04 11:30:57;;;;;;;3.12;1.77;;;;;;;30.53;29.66;100177.86;1724456;82;21015;-42
2022/07/04 11:33:26;;;;;;;7.60;1.90;;;;;;;30.46;29.54;100180.23;1724676;82;21035;-38
2022/07/04 11:36:20;;;;;;;2.35;1.70;;;;;;;30.36;29.51;100177.44;1718957;82;21611;-38
2022/07/04 11:39:00;;;;;;;6.47;1.72;;;;;;;30.27;29.99;100182.28;1711212;83;21116;-38
2022/07/04 11:47:23;;;;;;;2.72;1.80;;;;;;;30.10;30.03;100178.26;1710874;83;21547;-38
2022/07/04 11:49:54;;;;;;;6.08;1.70;;;;;;;30.14;29.03;100172.98;1710945;84;21079;-46
2022/07/04 11:52:23;;;;;;;4.53;2.00;;;;;;;30.16;29.54;100172.87;1711020;82;21563;-46
2022/07/04 11:54:50;;;;;;;3.37;1.92;;;;;;;30.15;29.13;100173.84;1710732;84;21043;-38
2022/07/04 11:57:28;;;;;;;4.08;2.05;;;;;;;30.10;28.17;100176.91;1711144;83;21114;-46
2022/07/04 12:00:08;;;;;;;3.22;1.77;;;;;;;29.99;28.69;100176.95;1711233;84;21047;-46
2022/07/04 12:02:36;;;;;;;4.83;1.60;;;;;;;29.93;28.97;100170.71;1711452;83;21051;-38
2022/07/04 12:05:08;;;;;;;2.72;2.15;;;;;;;29.94;29.33;100162.98;1711028;84;21071;-47
2022/07/04 12:07:37;;;;;;;1.70;1.60;;;;;;;29.94;28.43;100165.68;1711385;83;21582;-46
2022/07/04 12:10:14;;;;;;;2.50;1.80;;;;;;;29.93;28.54;100170.22;1711055;84;21067;-46
2022/07/04 12:12:57;;;;;;;6.30;2.30;;;;;;;29.94;28.48;100167.03;1711360;83;21095;-38
2022/07/04 12:15:26;;;;;;;3.60;2.00;;;;;;;29.95;28.22;100164.69;1711223;83;21016;-46
2022/07/04 12:17:54;;;;;;;2.10;1.90;;;;;;;29.95;28.50;100157.95;1711297;83;21054;-46
2022/07/04 12:20:24;;;;;;;2.40;1.80;;;;;;;29.97;29.57;100155.97;1711527;82;20988;-46
2022/07/04 12:22:54;;;;;;;5.80;2.02;;;;;;;29.97;28.86;100151.92;1711162;84;21079;-38
2022/07/04 12:25:26;;;;;;;7.83;1.80;;;;;;;29.95;30.08;100154.76;1711361;82;21071;-38
2022/07/04 12:27:59;;;;;;;2.92;1.98;;;;;;;29.97;29.88;100151.07;1711182;84;21080;-46
2022/07/04 12:30:27;;;;;;;2.50;2.10;;;;;;;29.99;30.31;100152.67;1710339;83;21035;-46
2022/07/04 12:33:06;;;;;;;2.33;2.12;;;;;;;30.02;29.72;100147.01;1711258;83;21123;-46
2022/07/04 12:35:38;;;;;;;2.33;1.87;;;;;;;29.97;29.99;100146.53;1711860;83;21039;-38
2022/07/04 12:38:31;;;;;;;2.60;2.10;;;;;;;29.97;30.90;100137.59;1713660;83;21046;-39
